createdAt,value
2023-01-13T00:01:11.745Z,21.65
2023-01-13T00:03:38.863Z,22.23
2023-01-13T00:06:06.895Z,14.85
2023-01-13T00:08:33.898Z,30.98
2023-01-13T00:11:00.335Z,28.75
2023-01-13T00:13:26.816Z,17.00
2023-01-13T00:16:01.821Z,16.67
2023-01-13T00:18:28.625Z,16.02
2023-01-13T00:21:16.001Z,18.58
2023-01-13T00:23:43.680Z,18.88
2023-01-13T00:26:22.503Z,23.77
2023-01-13T00:28:49.723Z,22.40
2023-01-13T00:31:19.502Z,19.38
2023-01-13T00:33:48.936Z,20.65
2023-01-13T00:36:16.738Z,19.30
2023-01-13T00:38:43.963Z,16.30
2023-01-13T00:41:12.937Z,13.30
2023-01-13T00:43:40.407Z,17.23
2023-01-13T00:46:09.264Z,20.35
2023-01-13T00:48:36.457Z,17.48
2023-01-13T00:51:04.710Z,24.42
2023-01-13T00:53:35.780Z,28.30
2023-01-13T00:56:07.630Z,28.70
2023-01-13T00:58:35.207Z,17.45
2023-01-13T01:01:03.970Z,16.58
2023-01-13T01:03:30.934Z,25.17
2023-01-13T01:06:03.178Z,17.48
2023-01-13T01:08:29.642Z,19.00
2023-01-13T01:11:02.838Z,14.93
2023-01-13T01:13:29.273Z,19.00
2023-01-13T01:15:55.847Z,16.88
2023-01-13T01:18:22.319Z,17.48
2023-01-13T01:20:48.731Z,21.52
2023-01-13T01:23:15.352Z,23.17
2023-01-13T01:25:41.803Z,22.00
2023-01-13T01:28:08.197Z,23.20
2023-01-13T01:30:34.654Z,24.95
2023-01-13T01:33:03.088Z,25.92
2023-01-13T01:35:29.504Z,23.33
2023-01-13T01:37:55.896Z,15.52
2023-01-13T01:40:22.303Z,23.00
2023-01-13T01:43:07.077Z,20.50
2023-01-13T01:45:33.634Z,21.90
2023-01-13T01:48:04.469Z,16.73
2023-01-13T01:50:31.544Z,21.00
2023-01-13T01:53:07.208Z,26.30
2023-01-13T01:55:36.810Z,16.33
2023-01-13T01:58:35.502Z,15.88
2023-01-13T02:01:02.201Z,18.15
2023-01-13T02:03:29.935Z,27.20
2023-01-13T02:05:56.448Z,23.10
2023-01-13T02:08:22.966Z,21.45
2023-01-13T02:10:53.721Z,18.98
2023-01-13T02:13:22.526Z,23.00
2023-01-13T02:16:15.237Z,26.58
2023-01-13T02:19:08.543Z,17.45
2023-01-13T02:22:03.795Z,20.95
2023-01-13T02:25:10.534Z,20.25
2023-01-13T02:28:14.752Z,23.13
2023-01-13T02:31:06.352Z,23.15
2023-01-13T02:33:55.868Z,21.05
2023-01-13T02:36:34.095Z,18.63
2023-01-13T02:39:17.823Z,24.45
2023-01-13T02:42:30.953Z,22.52
2023-01-13T02:45:04.628Z,13.15
2023-01-13T02:47:35.853Z,16.60
2023-01-13T02:50:06.503Z,23.48
2023-01-13T02:52:47.494Z,22.25
2023-01-13T02:55:18.169Z,20.38
2023-01-13T02:57:46.364Z,18.05
2023-01-13T03:00:14.926Z,19.38
2023-01-13T03:02:41.392Z,17.88
2023-01-13T03:05:08.118Z,20.45
2023-01-13T03:08:10.819Z,20.00
2023-01-13T03:10:49.923Z,18.52
2023-01-13T03:13:42.495Z,20.98
2023-01-13T03:19:01.212Z,24.90
2023-01-13T03:21:35.656Z,15.95
2023-01-13T03:24:22.561Z,17.33
2023-01-13T03:26:51.700Z,22.05
2023-01-13T03:29:35.066Z,26.77
2023-01-13T03:32:18.436Z,13.52
2023-01-13T03:34:50.238Z,17.17
2023-01-13T03:37:21.147Z,20.85
2023-01-13T03:39:52.882Z,20.67
2023-01-13T03:42:25.964Z,28.40
2023-01-13T03:45:03.015Z,20.70
2023-01-13T03:47:37.137Z,14.95
2023-01-13T03:50:09.576Z,19.80
2023-01-13T03:52:45.326Z,22.08
2023-01-13T03:55:15.530Z,21.40
2023-01-13T03:57:52.124Z,14.90
2023-01-13T04:00:22.240Z,21.27
2023-01-13T04:02:57.201Z,16.63
2023-01-13T04:07:56.308Z,17.33
2023-01-13T04:10:31.560Z,18.10
2023-01-13T04:13:10.584Z,7.00
2023-01-13T04:15:40.139Z,17.95
2023-01-13T04:18:11.641Z,9.38
2023-01-13T04:20:39.747Z,13.98
2023-01-13T04:23:06.825Z,15.40
2023-01-13T04:25:34.400Z,12.65
2023-01-13T04:28:01.480Z,18.48
2023-01-13T04:30:28.085Z,11.60
2023-01-13T04:32:54.938Z,18.95
2023-01-13T04:35:21.360Z,12.63
2023-01-13T04:37:48.421Z,11.38
2023-01-13T04:40:14.950Z,10.30
2023-01-13T04:42:44.185Z,8.60
2023-01-13T04:45:11.328Z,12.93
2023-01-13T04:47:38.143Z,9.27
2023-01-13T04:50:05.229Z,6.30
2023-01-13T04:52:31.723Z,8.00
2023-01-13T04:54:58.147Z,9.57
2023-01-13T04:57:24.613Z,8.23
2023-01-13T04:59:51.053Z,9.13
2023-01-13T05:02:20.002Z,8.57
2023-01-13T05:04:47.713Z,10.00
2023-01-13T05:07:16.144Z,7.45
2023-01-13T05:09:42.727Z,7.80
2023-01-13T05:12:29.071Z,7.75
2023-01-13T05:15:14.009Z,7.50
2023-01-13T05:17:40.865Z,12.40
2023-01-13T05:20:08.298Z,7.97
2023-01-13T05:22:53.101Z,7.45
2023-01-13T05:25:22.210Z,8.90
2023-01-13T05:30:16.274Z,4.47
2023-01-13T05:32:42.806Z,6.93
2023-01-13T05:35:09.605Z,4.55
2023-01-13T05:37:36.209Z,6.50
2023-01-13T05:40:22.429Z,8.82
2023-01-13T05:43:18.380Z,13.77
2023-01-13T05:45:45.267Z,9.00
2023-01-13T05:48:11.812Z,10.98
2023-01-13T05:50:38.299Z,8.20
2023-01-13T05:53:05.017Z,8.63
2023-01-13T05:55:31.865Z,7.40
2023-01-13T05:57:58.424Z,11.38
2023-01-13T06:00:25.016Z,10.52
2023-01-13T06:02:51.950Z,10.05
2023-01-13T06:05:18.369Z,16.23
2023-01-13T06:07:44.802Z,11.45
2023-01-13T06:10:11.545Z,11.27
2023-01-13T06:12:38.102Z,10.95
2023-01-13T06:15:04.950Z,17.58
2023-01-13T06:17:31.374Z,14.13
2023-01-13T06:19:57.772Z,15.13
2023-01-13T06:22:28.374Z,9.13
2023-01-13T06:24:54.892Z,12.77
2023-01-13T06:27:22.947Z,12.25
2023-01-13T06:29:49.692Z,12.85
2023-01-13T06:32:28.192Z,11.48
2023-01-13T06:35:00.246Z,9.80
2023-01-13T06:37:28.542Z,11.20
2023-01-13T06:39:58.526Z,16.38
2023-01-13T06:42:47.040Z,12.65
2023-01-13T06:45:14.255Z,12.80
2023-01-13T06:47:41.252Z,13.65
2023-01-13T06:50:08.328Z,14.80
2023-01-13T06:52:34.745Z,9.90
2023-01-13T06:55:01.262Z,12.15
2023-01-13T06:57:27.722Z,8.27
2023-01-13T06:59:54.274Z,14.82
2023-01-13T07:02:20.851Z,9.40
2023-01-13T07:04:47.430Z,13.95
2023-01-13T07:07:13.852Z,15.65
2023-01-13T07:09:40.372Z,16.17
2023-01-13T07:12:07.250Z,11.70
2023-01-13T07:14:52.059Z,10.00
2023-01-13T07:17:25.458Z,14.57
2023-01-13T07:19:53.027Z,12.00
2023-01-13T07:22:19.610Z,15.20
2023-01-13T07:24:46.092Z,16.92
2023-01-13T07:27:12.611Z,16.10
2023-01-13T07:29:39.708Z,11.05
2023-01-13T07:32:07.769Z,11.52
2023-01-13T07:34:34.262Z,9.88
2023-01-13T07:37:01.355Z,18.17
2023-01-13T07:39:27.880Z,19.25
2023-01-13T07:42:12.996Z,16.58
2023-01-13T07:44:39.563Z,18.35
2023-01-13T07:47:08.484Z,19.63
2023-01-13T07:52:01.748Z,19.90
2023-01-13T07:54:40.062Z,11.93
2023-01-13T07:57:08.928Z,10.02
2023-01-13T07:59:35.460Z,13.10
2023-01-13T08:02:02.091Z,13.48
2023-01-13T08:04:28.718Z,14.98
2023-01-13T08:06:55.198Z,10.85
2023-01-13T08:09:21.944Z,16.38
2023-01-13T08:12:08.436Z,10.02
2023-01-13T08:14:35.046Z,9.90
2023-01-13T08:17:01.548Z,12.75
2023-01-13T08:19:28.055Z,13.90
2023-01-13T08:21:54.472Z,11.35
2023-01-13T08:24:20.910Z,8.23
2023-01-13T08:26:47.379Z,12.25
2023-01-13T08:29:15.181Z,24.40
2023-01-13T08:31:41.748Z,13.65
2023-01-13T08:34:08.175Z,15.25
2023-01-13T08:36:34.729Z,9.63
2023-01-13T08:39:01.723Z,15.52
2023-01-13T08:41:46.518Z,15.70
2023-01-13T08:44:12.976Z,8.70
2023-01-13T08:46:40.006Z,11.60
2023-01-13T08:49:06.477Z,18.10
2023-01-13T08:51:33.060Z,14.32
2023-01-13T08:53:59.512Z,13.95
2023-01-13T08:56:26.037Z,17.58
2023-01-13T08:58:52.464Z,18.92
2023-01-13T09:01:22.818Z,11.20
2023-01-13T09:03:49.623Z,9.18
2023-01-13T09:06:16.039Z,13.93
2023-01-13T09:08:42.984Z,12.32
2023-01-13T09:11:38.771Z,18.20
2023-01-13T09:14:05.525Z,21.15
2023-01-13T09:16:31.933Z,9.88
2023-01-13T09:18:58.371Z,10.15
2023-01-13T09:21:24.794Z,19.67
2023-01-13T09:23:51.922Z,12.45
2023-01-13T09:26:21.298Z,16.35
2023-01-13T09:28:48.065Z,8.88
2023-01-13T09:31:14.716Z,11.52
2023-01-13T09:33:59.780Z,18.10
2023-01-13T09:36:26.211Z,15.85
2023-01-13T09:38:52.672Z,13.32
2023-01-13T09:41:40.563Z,13.82
2023-01-13T09:44:16.281Z,13.30
2023-01-13T09:46:49.403Z,12.80
2023-01-13T09:49:29.045Z,13.35
2023-01-13T09:51:58.943Z,11.43
2023-01-13T09:54:41.070Z,14.80
2023-01-13T09:57:12.974Z,12.43
2023-01-13T09:59:40.356Z,13.82
2023-01-13T10:02:27.886Z,10.30
2023-01-13T10:05:05.051Z,14.60
2023-01-13T10:07:36.778Z,16.50
2023-01-13T10:10:10.992Z,15.32
2023-01-13T10:12:55.807Z,15.55
2023-01-13T10:15:26.131Z,11.18
2023-01-13T10:17:55.306Z,14.85
2023-01-13T10:20:32.046Z,18.38
2023-01-13T10:23:26.574Z,13.57
2023-01-13T10:25:58.088Z,10.35
2023-01-13T10:28:25.362Z,13.82
2023-01-13T10:30:51.977Z,14.10
2023-01-13T10:33:21.205Z,16.50
2023-01-13T10:36:12.728Z,18.13
2023-01-13T10:38:47.198Z,10.95
2023-01-13T10:41:13.535Z,13.93
2023-01-13T10:43:42.729Z,16.02
2023-01-13T10:46:16.321Z,16.20
2023-01-13T10:49:04.447Z,11.10
2023-01-13T10:51:51.170Z,9.88
2023-01-13T10:54:22.511Z,15.48
2023-01-13T10:57:09.948Z,12.50
2023-01-13T10:59:36.513Z,12.02
2023-01-13T11:02:25.270Z,13.32
2023-01-13T11:04:55.271Z,10.65
2023-01-13T11:07:31.770Z,10.93
2023-01-13T11:10:17.138Z,12.73
2023-01-13T11:13:03.830Z,9.48
2023-01-13T11:19:02.254Z,14.50
2023-01-13T11:21:50.638Z,16.92
2023-01-13T11:24:42.448Z,9.32
2023-01-13T11:27:25.977Z,9.50
2023-01-13T11:30:10.773Z,10.82
2023-01-13T11:32:47.784Z,12.15
2023-01-13T11:35:19.764Z,13.90
2023-01-13T11:37:53.716Z,9.50
2023-01-13T11:40:46.143Z,11.98
2023-01-13T11:43:39.696Z,9.82
2023-01-13T11:48:39.382Z,16.42
2023-01-13T11:51:21.397Z,10.05
2023-01-13T11:54:02.651Z,10.90
2023-01-13T11:56:43.514Z,10.85
2023-01-13T11:59:45.286Z,9.80
2023-01-13T12:02:19.230Z,13.07
2023-01-13T12:04:57.516Z,14.68
2023-01-13T12:07:42.354Z,6.15
2023-01-13T12:10:29.986Z,12.55
2023-01-13T12:13:31.972Z,15.85
2023-01-13T12:16:10.601Z,8.90
2023-01-13T12:18:51.313Z,8.77
2023-01-13T12:24:06.249Z,6.80
2023-01-13T12:31:41.352Z,8.05
2023-01-13T12:34:26.856Z,14.38
2023-01-13T12:37:05.452Z,11.00
2023-01-13T12:40:01.687Z,9.90
2023-01-13T12:42:58.896Z,8.50
2023-01-13T12:45:33.072Z,8.60
2023-01-13T12:48:00.445Z,12.43
2023-01-13T12:50:27.028Z,8.80
2023-01-13T12:52:55.680Z,8.30
2023-01-13T12:55:27.183Z,8.02
2023-01-13T12:58:15.579Z,9.40
2023-01-13T13:00:41.978Z,11.55
2023-01-13T13:03:11.332Z,8.90
2023-01-13T13:05:56.585Z,6.68
2023-01-13T13:08:50.311Z,10.73
2023-01-13T13:11:39.560Z,10.30
2023-01-13T13:14:11.844Z,11.30
2023-01-13T13:16:52.062Z,11.32
2023-01-13T13:19:18.641Z,7.55
2023-01-13T13:22:13.412Z,10.98
2023-01-13T13:24:48.833Z,10.10
2023-01-13T13:27:38.261Z,8.18
2023-01-13T13:30:34.600Z,10.75
2023-01-13T13:33:31.911Z,7.22
2023-01-13T13:36:13.547Z,6.13
2023-01-13T13:39:29.999Z,14.55
2023-01-13T13:42:32.973Z,9.65
2023-01-13T13:45:40.083Z,8.88
2023-01-13T13:48:33.764Z,9.57
2023-01-13T13:51:03.756Z,6.78
2023-01-13T13:53:34.685Z,5.18
2023-01-13T13:56:04.063Z,9.15
2023-01-13T13:58:35.413Z,8.23
2023-01-13T14:01:03.709Z,6.50
2023-01-13T14:03:37.843Z,6.68
2023-01-13T14:06:07.526Z,6.82
2023-01-13T14:08:39.058Z,7.00
2023-01-13T14:11:29.128Z,9.90
2023-01-13T14:14:04.365Z,6.22
2023-01-13T14:16:32.140Z,5.38
2023-01-13T14:18:59.008Z,9.35
2023-01-13T14:21:28.494Z,10.55
2023-01-13T14:24:01.034Z,8.70
2023-01-13T14:26:30.815Z,7.68
2023-01-13T14:28:59.781Z,8.02
2023-01-13T14:36:32.964Z,11.60
2023-01-13T14:39:05.694Z,12.20
2023-01-13T14:41:34.187Z,7.47
2023-01-13T14:44:04.118Z,10.68
2023-01-13T14:46:37.655Z,8.70
2023-01-13T14:49:04.476Z,12.82
2023-01-13T14:51:31.740Z,6.03
2023-01-13T14:53:59.588Z,5.85
2023-01-13T14:56:44.116Z,8.13
2023-01-13T14:59:32.586Z,6.32
2023-01-13T15:01:59.861Z,9.13
2023-01-13T15:04:31.826Z,8.18
2023-01-13T15:07:00.051Z,8.40
2023-01-13T15:09:33.222Z,8.73
2023-01-13T15:12:12.297Z,10.68
2023-01-13T15:14:38.759Z,14.95
2023-01-13T15:17:15.990Z,6.70
2023-01-13T15:19:42.454Z,8.25
2023-01-13T15:22:08.914Z,13.02
2023-01-13T15:24:35.348Z,12.80
2023-01-13T15:27:13.176Z,12.55
2023-01-13T15:29:39.624Z,12.93
2023-01-13T15:32:09.180Z,6.03
2023-01-13T15:34:36.223Z,9.23
2023-01-13T15:37:02.646Z,10.63
2023-01-13T15:39:29.085Z,5.85
2023-01-13T15:42:15.533Z,5.43
2023-01-13T15:45:00.376Z,7.63
2023-01-13T15:47:27.079Z,11.35
2023-01-13T15:49:54.428Z,6.68
2023-01-13T15:52:23.376Z,7.50
2023-01-13T15:54:50.640Z,10.10
2023-01-13T15:57:29.083Z,9.30
2023-01-13T15:59:58.455Z,7.95
2023-01-13T16:02:25.334Z,7.15
2023-01-13T16:04:53.804Z,10.52
2023-01-13T16:07:22.638Z,8.88
2023-01-13T16:09:49.426Z,12.27
2023-01-13T16:12:16.018Z,9.88
2023-01-13T16:14:42.801Z,7.18
2023-01-13T16:17:14.429Z,9.57
2023-01-13T16:19:41.012Z,10.25
2023-01-13T16:22:09.341Z,13.98
2023-01-13T16:24:35.761Z,6.65
2023-01-13T16:27:02.140Z,9.20
2023-01-13T16:29:29.405Z,9.35
2023-01-13T16:31:55.913Z,11.57
2023-01-13T16:34:23.117Z,9.82
2023-01-13T16:36:50.214Z,11.32
2023-01-13T16:39:21.660Z,7.05
2023-01-13T16:41:48.618Z,11.23
2023-01-13T16:44:15.114Z,5.20
2023-01-13T16:46:44.436Z,10.77
2023-01-13T16:49:13.579Z,7.43
2023-01-13T16:51:40.406Z,10.27
2023-01-13T16:54:07.516Z,8.63
2023-01-13T16:56:36.079Z,8.68
2023-01-13T16:59:08.408Z,10.63
2023-01-13T17:01:38.166Z,4.00
2023-01-13T17:04:05.602Z,12.52
2023-01-13T17:06:34.576Z,6.57
2023-01-13T17:09:06.063Z,12.98
2023-01-13T17:11:32.558Z,7.30
2023-01-13T17:13:59.226Z,6.72
2023-01-13T17:16:26.261Z,12.40
2023-01-13T17:18:53.621Z,7.22
2023-01-13T17:21:20.185Z,4.00
2023-01-13T17:23:46.728Z,5.55
2023-01-13T17:26:32.341Z,4.63
2023-01-13T17:29:00.296Z,7.60
2023-01-13T17:31:28.234Z,5.88
2023-01-13T17:33:55.285Z,4.97
2023-01-13T17:36:22.908Z,5.38
2023-01-13T17:38:50.596Z,5.03
2023-01-13T17:41:17.069Z,3.08
2023-01-13T17:43:43.595Z,4.82
2023-01-13T17:46:11.547Z,2.67
2023-01-13T17:48:38.268Z,5.85
2023-01-13T17:51:08.603Z,3.55
2023-01-13T17:53:35.176Z,1.35
2023-01-13T17:56:01.655Z,2.10
2023-01-13T17:58:28.136Z,1.70
2023-01-13T18:00:54.765Z,2.95
2023-01-13T18:03:21.333Z,2.72
2023-01-13T18:05:47.816Z,2.42
2023-01-13T18:08:14.244Z,5.38
2023-01-13T18:10:40.801Z,4.00
2023-01-13T18:13:07.824Z,2.90
2023-01-13T18:15:34.258Z,5.60
2023-01-13T18:18:00.794Z,3.45
2023-01-13T18:20:46.318Z,6.97
2023-01-13T18:23:36.447Z,5.65
2023-01-13T18:26:38.700Z,4.93
2023-01-13T18:29:05.424Z,4.70
2023-01-13T18:31:31.895Z,4.85
2023-01-13T18:33:58.346Z,7.28
2023-01-13T18:36:24.789Z,9.30
2023-01-13T18:38:51.459Z,7.32
2023-01-13T18:41:37.019Z,4.20
2023-01-13T18:44:03.610Z,5.63
2023-01-13T18:46:30.188Z,7.93
2023-01-13T18:48:56.830Z,7.38
2023-01-13T18:51:23.375Z,7.55
2023-01-13T18:53:49.880Z,6.60
2023-01-13T18:56:16.874Z,5.72
2023-01-13T18:58:51.332Z,10.13
2023-01-13T19:01:26.270Z,4.20
2023-01-13T19:06:27.777Z,6.30
2023-01-13T19:08:55.936Z,6.38
2023-01-13T19:11:23.624Z,7.45
2023-01-13T19:13:51.380Z,5.43
2023-01-13T19:16:19.616Z,4.97
2023-01-13T19:18:46.072Z,3.42
2023-01-13T19:21:12.923Z,8.98
2023-01-13T19:23:39.680Z,2.33
2023-01-13T19:26:09.119Z,7.65
2023-01-13T19:28:37.077Z,10.02
2023-01-13T19:31:06.779Z,7.38
2023-01-13T19:33:35.645Z,5.32
2023-01-13T19:36:03.395Z,4.80
2023-01-13T19:38:30.147Z,7.57
2023-01-13T19:41:02.415Z,5.78
2023-01-13T19:43:47.475Z,4.78
2023-01-13T19:46:14.459Z,9.48
2023-01-13T19:48:42.816Z,10.02
2023-01-13T19:51:10.296Z,9.80
2023-01-13T19:53:36.748Z,9.07
2023-01-13T19:56:04.010Z,5.97
2023-01-13T19:58:30.504Z,8.73
2023-01-13T20:00:57.064Z,11.30
2023-01-13T20:03:25.998Z,3.95
2023-01-13T20:05:53.387Z,8.13
2023-01-13T20:08:21.837Z,4.47
2023-01-13T20:10:49.463Z,5.65
2023-01-13T20:13:16.456Z,6.47
2023-01-13T20:15:43.834Z,7.00
2023-01-13T20:18:10.467Z,8.38
2023-01-13T20:20:37.527Z,8.00
2023-01-13T20:23:04.320Z,5.68
2023-01-13T20:25:31.019Z,6.28
2023-01-13T20:27:58.424Z,7.15
2023-01-13T20:30:25.715Z,4.93
2023-01-13T20:32:52.616Z,5.15
2023-01-13T20:35:19.252Z,4.75
2023-01-13T20:37:45.741Z,5.68
2023-01-13T20:40:15.676Z,4.85
2023-01-13T20:42:45.477Z,7.57
2023-01-13T20:45:18.046Z,9.95
2023-01-13T20:47:44.763Z,4.88
2023-01-13T20:50:12.273Z,4.95
2023-01-13T20:52:38.840Z,7.13
2023-01-13T20:55:07.224Z,7.30
2023-01-13T20:57:34.462Z,6.10
2023-01-13T21:00:02.179Z,2.28
2023-01-13T21:02:28.750Z,3.60
2023-01-13T21:04:55.180Z,5.53
2023-01-13T21:07:21.688Z,4.00
2023-01-13T21:09:48.352Z,8.40
2023-01-13T21:12:34.463Z,6.47
2023-01-13T21:15:19.940Z,4.85
2023-01-13T21:18:07.208Z,6.22
2023-01-13T21:20:35.301Z,7.13
2023-01-13T21:23:03.522Z,6.13
2023-01-13T21:25:31.071Z,6.90
2023-01-13T21:28:08.554Z,14.38
2023-01-13T21:30:36.527Z,11.23
2023-01-13T21:33:04.766Z,9.07
2023-01-13T21:35:31.304Z,9.60
2023-01-13T21:37:57.770Z,5.90
2023-01-13T21:40:24.242Z,10.75
2023-01-13T21:43:09.060Z,7.05
2023-01-13T21:45:57.603Z,8.38
2023-01-13T21:48:24.092Z,7.47
2023-01-13T21:50:51.068Z,13.32
2023-01-13T21:53:17.778Z,6.43
2023-01-13T21:55:44.254Z,10.57
2023-01-13T21:58:13.577Z,8.23
2023-01-13T22:00:42.305Z,6.00
2023-01-13T22:03:09.825Z,9.75
2023-01-13T22:05:37.015Z,7.88
2023-01-13T22:08:04.481Z,9.63
2023-01-13T22:10:31.694Z,6.57
2023-01-13T22:13:20.597Z,12.45
2023-01-13T22:15:47.376Z,7.10
2023-01-13T22:18:14.008Z,6.65
2023-01-13T22:20:41.988Z,11.23
2023-01-13T22:23:08.516Z,12.20
2023-01-13T22:25:34.987Z,6.90
2023-01-13T22:28:05.866Z,7.28
2023-01-13T22:30:33.093Z,5.18
2023-01-13T22:32:59.852Z,16.30
2023-01-13T22:35:26.413Z,6.88
2023-01-13T22:37:52.844Z,7.72
2023-01-13T22:40:19.376Z,5.60
2023-01-13T22:42:46.306Z,8.48
2023-01-13T22:45:14.211Z,8.25
2023-01-13T22:47:40.997Z,6.30
2023-01-13T22:50:08.542Z,8.82
2023-01-13T22:52:35.760Z,8.93
2023-01-13T22:55:02.298Z,10.85
2023-01-13T22:57:36.646Z,9.57
2023-01-13T23:00:10.555Z,9.48
2023-01-13T23:02:38.092Z,10.80
2023-01-13T23:05:04.872Z,7.32
2023-01-13T23:07:31.314Z,7.25
2023-01-13T23:09:57.766Z,5.53
2023-01-13T23:12:24.305Z,8.40
2023-01-13T23:14:50.725Z,7.55
2023-01-13T23:17:17.129Z,9.65
2023-01-13T23:19:43.676Z,12.77
2023-01-13T23:22:10.151Z,8.68
2023-01-13T23:24:36.556Z,5.50
2023-01-13T23:27:03.123Z,13.15
2023-01-13T23:29:29.606Z,13.90
2023-01-13T23:31:56.018Z,6.80
2023-01-13T23:34:22.660Z,4.90
2023-01-13T23:36:49.159Z,8.27
2023-01-13T23:39:15.593Z,13.13
2023-01-13T23:41:42.033Z,14.05
2023-01-13T23:44:09.193Z,8.32
2023-01-13T23:46:35.745Z,11.82
2023-01-13T23:49:03.472Z,8.43
2023-01-13T23:51:30.346Z,7.93
2023-01-13T23:53:57.952Z,2.53
2023-01-13T23:56:27.073Z,5.50
